createdAt,value
2022-11-28T00:00:07.081Z,102082.50
2022-11-28T00:05:08.006Z,102150.50
2022-11-28T00:10:02.127Z,102083.34
2022-11-28T00:14:56.040Z,102120.78
2022-11-28T00:19:50.658Z,102178.63
2022-11-28T00:24:46.252Z,102057.94
2022-11-28T00:29:40.328Z,102064.56
2022-11-28T00:34:34.848Z,101979.69
2022-11-28T00:39:29.760Z,102087.47
2022-11-28T00:44:23.140Z,102144.47
2022-11-28T00:49:16.530Z,102136.72
2022-11-28T00:54:09.928Z,102124.00
2022-11-28T00:59:05.169Z,102020.34
2022-11-28T01:04:26.527Z,102104.31
2022-11-28T01:09:24.473Z,102196.78
2022-11-28T01:14:22.439Z,101964.16
2022-11-28T01:19:16.419Z,101950.66
2022-11-28T01:24:10.324Z,102121.31
2022-11-28T01:29:03.920Z,101896.03
2022-11-28T01:33:59.783Z,101949.66
2022-11-28T01:38:55.872Z,102172.06
2022-11-28T01:44:07.393Z,101994.53
2022-11-28T01:49:24.700Z,102162.63
2022-11-28T01:54:20.166Z,102170.53
2022-11-28T01:59:16.601Z,102066.09
2022-11-28T02:04:14.803Z,102085.47
2022-11-28T02:09:11.456Z,101955.75
2022-11-28T02:14:15.848Z,102032.16
2022-11-28T02:19:36.071Z,102026.22
2022-11-28T02:24:56.188Z,101985.47
2022-11-28T02:30:21.529Z,101936.19
2022-11-28T02:35:23.042Z,102090.81
2022-11-28T02:40:23.229Z,102170.91
2022-11-28T02:45:28.159Z,102097.00
2022-11-28T02:50:29.912Z,102080.72
2022-11-28T02:55:23.734Z,102157.25
2022-11-28T03:00:31.349Z,102146.25
2022-11-28T03:05:31.575Z,102163.31
2022-11-28T03:10:34.292Z,101949.22
2022-11-28T03:15:38.369Z,102166.84
2022-11-28T03:20:47.172Z,102005.31
2022-11-28T03:25:51.095Z,101977.41
2022-11-28T03:30:54.027Z,102104.00
2022-11-28T03:35:55.458Z,101968.13
2022-11-28T03:40:52.624Z,102019.06
2022-11-28T03:45:58.394Z,102103.19
2022-11-28T03:51:07.439Z,101977.53
2022-11-28T03:56:10.792Z,101977.72
2022-11-28T04:01:11.394Z,102044.00
2022-11-28T04:06:08.883Z,102178.91
2022-11-28T04:11:08.938Z,101948.13
2022-11-28T04:16:10.849Z,101959.19
2022-11-28T04:21:14.362Z,102106.38
2022-11-28T04:26:17.994Z,102144.66
2022-11-28T04:31:12.462Z,102167.63
2022-11-28T04:36:12.091Z,102087.75
2022-11-28T04:41:13.309Z,101971.41
2022-11-28T04:46:11.432Z,101957.03
2022-11-28T04:51:17.577Z,102117.53
2022-11-28T04:56:20.185Z,101972.22
2022-11-28T05:01:20.767Z,101985.94
2022-11-28T05:06:34.044Z,102198.22
2022-11-28T05:11:29.800Z,102133.88
2022-11-28T05:16:24.155Z,101987.69
2022-11-28T05:21:45.267Z,102008.09
2022-11-28T05:26:51.510Z,102016.59
2022-11-28T05:31:50.743Z,102226.63
2022-11-28T05:36:47.988Z,101978.28
2022-11-28T05:41:44.429Z,102223.22
2022-11-28T05:46:38.033Z,102223.16
2022-11-28T05:51:31.616Z,102098.06
2022-11-28T05:56:26.640Z,102233.47
2022-11-28T06:01:22.598Z,102040.50
2022-11-28T06:06:17.844Z,102181.66
2022-11-28T06:11:12.409Z,102022.69
2022-11-28T06:16:11.717Z,102249.72
2022-11-28T06:21:08.946Z,102026.88
2022-11-28T06:26:06.989Z,102255.59
2022-11-28T06:31:00.620Z,102193.41
2022-11-28T06:36:00.453Z,102245.22
2022-11-28T06:40:57.640Z,102235.00
2022-11-28T06:45:50.865Z,102234.91
2022-11-28T06:50:44.200Z,102233.13
2022-11-28T06:55:38.975Z,102123.41
2022-11-28T07:00:32.882Z,102187.03
2022-11-28T07:05:27.881Z,102226.03
2022-11-28T07:10:21.321Z,102194.41
2022-11-28T07:15:16.109Z,102207.84
2022-11-28T07:20:10.994Z,102188.03
2022-11-28T07:25:06.749Z,102217.59
2022-11-28T07:30:02.076Z,102162.28
2022-11-28T07:34:56.694Z,102178.28
2022-11-28T07:39:51.871Z,102217.34
2022-11-28T07:44:45.325Z,102210.31
2022-11-28T07:49:41.406Z,102210.16
2022-11-28T07:54:36.443Z,102097.81
2022-11-28T07:59:29.899Z,102163.81
2022-11-28T08:04:23.228Z,102163.56
2022-11-28T08:09:16.578Z,102150.81
2022-11-28T08:14:11.643Z,102173.56
2022-11-28T08:19:05.317Z,102139.31
2022-11-28T08:24:00.947Z,102143.38
2022-11-28T08:28:54.886Z,102076.25
2022-11-28T08:33:51.185Z,102173.59
2022-11-28T08:39:02.987Z,102120.63
2022-11-28T08:43:59.549Z,102169.81
2022-11-28T08:48:54.224Z,102126.72
2022-11-28T08:53:49.407Z,102131.84
2022-11-28T08:58:42.777Z,102170.94
2022-11-28T09:03:35.997Z,102055.56
2022-11-28T09:08:30.685Z,102107.03
2022-11-28T09:13:24.108Z,102126.53
2022-11-28T09:18:18.290Z,102088.91
2022-11-28T09:23:11.880Z,102138.78
2022-11-28T09:28:06.827Z,102109.53
2022-11-28T09:33:00.283Z,102074.31
2022-11-28T09:37:53.436Z,102013.69
2022-11-28T09:42:47.206Z,102051.00
2022-11-28T09:47:44.140Z,102109.47
2022-11-28T09:52:44.458Z,102112.00
2022-11-28T09:57:41.810Z,102006.59
2022-11-28T10:02:44.032Z,102077.81
2022-11-28T10:07:53.703Z,101962.25
2022-11-28T10:12:58.025Z,102073.34
2022-11-28T10:17:58.935Z,102040.66
2022-11-28T10:22:58.509Z,102033.63
2022-11-28T10:27:52.441Z,102041.31
2022-11-28T10:32:53.456Z,102064.06
2022-11-28T10:37:46.904Z,102002.94
2022-11-28T10:42:46.530Z,102000.75
2022-11-28T10:47:54.547Z,102044.72
2022-11-28T10:52:53.826Z,101995.56
2022-11-28T10:57:57.872Z,102043.50
2022-11-28T11:02:52.590Z,102034.47
2022-11-28T11:07:51.370Z,102009.13
2022-11-28T11:12:45.603Z,101992.09
2022-11-28T11:17:40.146Z,102022.66
2022-11-28T11:22:33.713Z,102011.94
2022-11-28T11:27:27.058Z,101976.09
2022-11-28T11:32:24.878Z,101989.06
2022-11-28T11:37:38.086Z,101977.66
2022-11-28T11:42:32.642Z,102011.84
2022-11-28T11:47:42.470Z,101911.97
2022-11-28T11:52:37.034Z,101962.03
2022-11-28T11:57:35.182Z,102007.09
2022-11-28T12:02:35.393Z,101969.53
2022-11-28T12:07:34.890Z,102011.41
2022-11-28T12:12:30.953Z,101954.69
2022-11-28T12:17:50.089Z,101992.31
2022-11-28T12:22:57.253Z,102001.94
2022-11-28T12:28:03.117Z,101984.16
2022-11-28T12:33:12.897Z,101994.25
2022-11-28T12:38:20.349Z,101955.94
2022-11-28T12:43:29.365Z,101955.88
2022-11-28T12:48:42.476Z,101960.69
2022-11-28T12:54:00.436Z,101983.41
2022-11-28T12:59:02.096Z,101963.94
2022-11-28T13:04:06.533Z,101972.97
2022-11-28T13:09:16.414Z,101996.00
2022-11-28T13:14:21.519Z,102003.72
2022-11-28T13:19:29.951Z,101940.31
2022-11-28T13:24:31.388Z,101996.22
2022-11-28T13:29:33.808Z,101997.25
2022-11-28T13:34:27.941Z,102013.31
2022-11-28T13:39:33.263Z,101968.25
2022-11-28T13:44:36.696Z,102001.06
2022-11-28T13:49:30.685Z,102005.41
2022-11-28T13:54:48.879Z,102006.41
2022-11-28T13:59:50.538Z,102012.69
2022-11-28T14:04:45.609Z,102010.41
2022-11-28T14:09:53.332Z,102014.00
2022-11-28T14:15:09.993Z,101982.81
2022-11-28T14:20:16.472Z,102000.03
2022-11-28T14:25:18.171Z,101920.56
2022-11-28T14:30:26.010Z,102012.19
2022-11-28T14:35:57.885Z,101994.47
2022-11-28T14:41:02.426Z,102020.22
2022-11-28T14:46:34.910Z,102021.13
2022-11-28T14:52:15.801Z,101991.66
2022-11-28T14:57:18.203Z,101911.19
2022-11-28T15:02:46.285Z,101894.09
2022-11-28T15:07:55.619Z,102007.53
2022-11-28T15:13:04.431Z,101911.84
2022-11-28T15:18:03.650Z,102005.13
2022-11-28T15:22:57.210Z,102018.19
2022-11-28T15:27:55.767Z,101913.16
2022-11-28T15:32:52.007Z,101818.34
2022-11-28T15:37:50.947Z,101987.28
2022-11-28T15:42:45.228Z,101977.84
2022-11-28T15:47:39.772Z,101903.31
2022-11-28T15:52:36.373Z,101791.69
2022-11-28T15:57:33.771Z,101877.59
2022-11-28T16:02:40.534Z,101904.78
2022-11-28T16:07:42.925Z,101815.00
2022-11-28T16:12:36.511Z,101794.75
2022-11-28T16:17:35.756Z,101881.63
2022-11-28T16:22:35.377Z,101793.59
2022-11-28T16:27:36.207Z,101925.94
2022-11-28T16:32:44.015Z,102008.28
2022-11-28T16:37:39.410Z,101792.19
2022-11-28T16:42:41.709Z,101999.34
2022-11-28T16:47:37.240Z,101812.94
2022-11-28T16:52:57.934Z,101900.41
2022-11-28T16:58:03.876Z,101897.19
2022-11-28T17:02:58.789Z,101915.94
2022-11-28T17:07:56.332Z,101913.47
2022-11-28T17:12:57.876Z,101893.97
2022-11-28T17:17:52.960Z,101925.38
2022-11-28T17:22:56.495Z,101877.25
2022-11-28T17:28:00.763Z,101938.28
2022-11-28T17:32:55.421Z,101998.47
2022-11-28T17:37:48.905Z,102002.88
2022-11-28T17:42:44.423Z,102003.00
2022-11-28T17:47:38.133Z,101854.50
2022-11-28T17:52:33.749Z,101869.69
2022-11-28T17:57:27.168Z,101985.97
2022-11-28T18:02:20.525Z,101961.66
2022-11-28T18:07:16.306Z,101987.84
2022-11-28T18:12:11.229Z,101987.09
2022-11-28T18:17:04.604Z,101885.53
2022-11-28T18:21:57.884Z,101856.94
2022-11-28T18:26:51.497Z,101918.94
2022-11-28T18:31:47.172Z,101880.75
2022-11-28T18:36:41.756Z,101988.53
2022-11-28T18:41:36.274Z,101952.06
2022-11-28T18:46:32.449Z,101888.34
2022-11-28T18:51:31.903Z,101867.94
2022-11-28T18:56:26.002Z,101867.25
2022-11-28T19:01:22.282Z,101934.50
2022-11-28T19:06:15.801Z,102004.19
2022-11-28T19:11:15.090Z,101994.81
2022-11-28T19:16:14.566Z,101929.56
2022-11-28T19:21:08.683Z,102003.47
2022-11-28T19:26:03.196Z,101948.09
2022-11-28T19:31:00.664Z,101919.16
2022-11-28T19:35:57.221Z,101907.09
2022-11-28T19:40:52.752Z,101992.78
2022-11-28T19:45:54.476Z,101918.09
2022-11-28T19:50:51.102Z,101813.75
2022-11-28T19:55:47.900Z,101963.66
2022-11-28T20:00:43.800Z,101982.38
2022-11-28T20:05:40.738Z,101777.91
2022-11-28T20:10:39.001Z,101935.03
2022-11-28T20:15:37.491Z,101996.16
2022-11-28T20:20:32.249Z,101843.50
2022-11-28T20:25:25.936Z,101949.47
2022-11-28T20:30:21.227Z,101992.75
2022-11-28T20:35:16.344Z,101956.28
2022-11-28T20:40:13.696Z,101883.34
2022-11-28T20:45:08.425Z,101955.34
2022-11-28T20:50:03.527Z,101746.69
2022-11-28T20:54:58.150Z,101733.97
2022-11-28T20:59:55.400Z,101767.97
2022-11-28T21:04:51.812Z,101868.00
2022-11-28T21:10:03.985Z,101726.44
2022-11-28T21:15:00.826Z,101746.84
2022-11-28T21:20:00.477Z,101829.19
2022-11-28T21:24:58.805Z,101806.41
2022-11-28T21:29:55.706Z,101801.41
2022-11-28T21:34:51.348Z,101728.47
2022-11-28T21:46:23.726Z,101752.09
2022-11-28T21:51:18.480Z,101931.13
2022-11-28T21:56:13.046Z,101786.72
2022-11-28T22:01:08.484Z,101995.56
2022-11-28T22:06:09.530Z,101887.78
2022-11-28T22:11:04.992Z,101776.59
2022-11-28T22:15:58.449Z,101986.25
2022-11-28T22:20:53.190Z,101783.63
2022-11-28T22:25:53.394Z,101946.47
2022-11-28T22:30:47.208Z,101969.41
2022-11-28T22:35:40.655Z,101968.47
2022-11-28T22:40:34.038Z,101885.19
2022-11-28T22:45:28.690Z,101884.41
2022-11-28T22:50:25.130Z,101906.31
2022-11-28T22:55:19.072Z,101870.66
2022-11-28T23:00:13.731Z,101727.47
2022-11-28T23:05:09.258Z,101966.78
2022-11-28T23:10:02.993Z,101827.59
2022-11-28T23:14:56.299Z,101756.28
2022-11-28T23:19:50.486Z,101899.56
2022-11-28T23:24:47.619Z,101947.00
2022-11-28T23:29:41.132Z,101946.16
2022-11-28T23:34:36.968Z,101907.09
2022-11-28T23:39:30.326Z,101944.50
2022-11-28T23:44:32.320Z,101947.16
2022-11-28T23:49:25.542Z,101810.66
2022-11-28T23:54:19.060Z,101940.50
2022-11-28T23:59:16.454Z,101948.38
